Time;durP1;ratioP1;P1;durP2;ratioP2;P2;SDS_P1;SDS_P2;PMS_P1;PMS_P2;Temp;Humidity;BMP_temperature;BMP_pressure;BME280_temperature;BME280_humidity;BME280_pressure;Samples;Min_cycle;Max_cycle;Signal;HPM_P1;HPM_P2
2023/09/17 00:01:33;;;;;;;9.63;5.75;;;9.80;98.30;;;;;;4955619;29;20027;-82
2023/09/17 00:04:00;;;;;;;16.45;6.75;;;9.90;98.40;;;;;;4957095;28;20027;-83
2023/09/17 00:06:26;;;;;;;13.20;6.65;;;9.90;98.40;;;;;;4960651;28;20045;-82
2023/09/17 00:08:52;;;;;;;12.80;5.68;;;9.90;98.30;;;;;;4959017;28;20463;-82
2023/09/17 00:11:20;;;;;;;12.90;7.18;;;9.90;98.20;;;;;;4958759;28;20059;-82
2023/09/17 00:13:46;;;;;;;13.52;6.47;;;9.90;98.10;;;;;;4940729;29;20133;-82
2023/09/17 00:16:12;;;;;;;11.07;6.00;;;9.90;98.10;;;;;;4957382;28;20035;-84
2023/09/17 00:18:38;;;;;;;8.57;6.07;;;9.90;98.10;;;;;;4967189;28;20023;-83
2023/09/17 00:21:06;;;;;;;12.13;6.65;;;9.90;98.10;;;;;;4968159;28;20151;-83
2023/09/17 00:23:31;;;;;;;11.38;7.10;;;9.90;98.20;;;;;;4956657;28;20023;-82
2023/09/17 00:25:57;;;;;;;11.65;6.05;;;9.80;98.20;;;;;;4959115;28;20050;-82
2023/09/17 00:28:23;;;;;;;12.93;6.53;;;9.80;98.20;;;;;;4956679;29;20328;-82
2023/09/17 00:30:49;;;;;;;10.05;6.15;;;9.80;98.30;;;;;;4958628;28;20055;-82
2023/09/17 00:33:15;;;;;;;14.80;6.47;;;9.80;98.30;;;;;;4957085;29;20042;-83
2023/09/17 00:35:40;;;;;;;15.77;7.68;;;9.80;98.40;;;;;;4957489;28;20031;-83
2023/09/17 00:38:06;;;;;;;12.30;7.07;;;9.80;98.40;;;;;;4964186;28;20023;-82
2023/09/17 00:40:34;;;;;;;12.93;6.57;;;9.70;98.50;;;;;;4959869;28;20535;-83
2023/09/17 00:43:01;;;;;;;13.13;5.75;;;9.70;98.50;;;;;;4956838;28;20042;-83
2023/09/17 00:45:29;;;;;;;10.32;6.05;;;9.70;98.40;;;;;;4956118;28;20039;-82
2023/09/17 00:47:55;;;;;;;10.50;6.35;;;9.70;98.40;;;;;;4956172;28;20038;-83
2023/09/17 00:50:21;;;;;;;13.60;6.55;;;9.70;98.40;;;;;;4956412;28;20059;-83
2023/09/17 00:52:47;;;;;;;9.38;5.90;;;9.70;98.50;;;;;;4956192;28;20031;-84
2023/09/17 00:55:13;;;;;;;8.45;5.18;;;9.70;98.50;;;;;;4956204;28;20031;-84
2023/09/17 00:57:45;;;;;;;12.55;6.38;;;9.70;98.50;;;;;;4938589;28;20473;-84
2023/09/17 01:00:11;;;;;;;11.10;5.85;;;9.70;98.60;;;;;;4956179;28;20027;-83
2023/09/17 01:02:39;;;;;;;12.70;6.57;;;9.70;98.60;;;;;;4956858;28;20417;-84
2023/09/17 01:05:05;;;;;;;15.48;6.43;;;9.70;98.60;;;;;;4944986;29;20027;-84
2023/09/17 01:07:34;;;;;;;13.57;5.88;;;9.60;98.60;;;;;;4958269;28;20024;-84
2023/09/17 01:10:00;;;;;;;15.68;7.03;;;9.60;98.60;;;;;;4961333;28;20026;-81
2023/09/17 01:12:27;;;;;;;10.63;5.90;;;9.60;98.60;;;;;;4942976;29;20027;-82
2023/09/17 01:14:54;;;;;;;9.48;5.90;;;9.60;98.90;;;;;;4969392;28;20027;-83
2023/09/17 01:17:21;;;;;;;;;;;9.60;98.60;;;;;;4963747;28;20023;-84
2023/09/17 01:19:48;;;;;;;13.70;6.20;;;9.50;98.40;;;;;;4956468;28;20418;-83
2023/09/17 01:22:26;;;;;;;15.50;6.83;;;9.50;98.50;;;;;;4956278;28;20066;-82
2023/09/17 01:25:06;;;;;;;16.45;6.72;;;9.50;98.70;;;;;;4955995;28;20031;-82
2023/09/17 01:27:38;;;;;;;9.98;5.80;;;9.50;98.80;;;;;;4955936;28;20109;-82
2023/09/17 01:30:05;;;;;;;10.15;6.25;;;9.40;98.80;;;;;;4955641;28;20055;-83
2023/09/17 01:32:31;;;;;;;12.40;6.63;;;9.50;98.90;;;;;;4955686;28;20023;-82
2023/09/17 01:34:57;;;;;;;14.18;6.95;;;9.40;98.90;;;;;;4955772;28;20027;-82
2023/09/17 01:37:34;;;;;;;13.30;5.75;;;9.40;98.90;;;;;;4955675;28;20015;-82
2023/09/17 01:40:05;;;;;;;9.88;5.93;;;9.40;99.00;;;;;;4955841;28;20031;-82
2023/09/17 01:42:32;;;;;;;12.30;5.85;;;9.40;99.00;;;;;;4955529;28;20098;-81
2023/09/17 01:45:00;;;;;;;8.63;6.45;;;9.40;99.30;;;;;;4955750;28;20114;-82
2023/09/17 01:47:27;;;;;;;14.93;7.15;;;9.40;99.10;;;;;;4940509;29;20043;-82
2023/09/17 01:49:58;;;;;;;11.60;6.63;;;9.40;99.10;;;;;;4955958;28;20027;-82
2023/09/17 01:52:32;;;;;;;14.23;7.38;;;9.40;99.20;;;;;;4962419;28;20035;-82
2023/09/17 01:55:00;;;;;;;11.52;6.57;;;9.30;99.20;;;;;;4967781;28;20015;-82
2023/09/17 01:57:26;;;;;;;15.48;6.43;;;9.30;99.30;;;;;;4937709;29;20023;-81
2023/09/17 01:59:51;;;;;;;13.07;6.15;;;9.30;99.40;;;;;;4937862;29;20500;-83
2023/09/17 02:02:18;;;;;;;18.83;7.25;;;9.30;99.40;;;;;;4953340;28;20031;-81
2023/09/17 02:04:44;;;;;;;18.25;7.10;;;9.30;99.40;;;;;;4955268;28;20515;-81
2023/09/17 02:07:11;;;;;;;18.25;7.57;;;9.30;99.40;;;;;;4937442;29;20035;-82
2023/09/17 02:09:37;;;;;;;20.45;8.13;;;9.30;99.50;;;;;;4937675;29;20024;-82
2023/09/17 02:12:03;;;;;;;19.40;7.38;;;9.30;99.50;;;;;;4954420;29;20198;-83
2023/09/17 02:14:29;;;;;;;12.85;7.57;;;9.20;99.60;;;;;;4955453;29;20022;-81
2023/09/17 02:16:55;;;;;;;10.80;6.50;;;9.30;99.70;;;;;;4966680;28;20027;-81
2023/09/17 02:19:21;;;;;;;14.05;8.07;;;9.20;99.90;;;;;;4959415;28;20114;-82
2023/09/17 02:21:46;;;;;;;15.00;9.07;;;9.30;99.70;;;;;;4955012;28;20033;-82
2023/09/17 02:24:12;;;;;;;18.75;7.68;;;9.20;99.70;;;;;;4954948;28;20029;-81
2023/09/17 02:26:38;;;;;;;14.45;8.43;;;9.30;99.80;;;;;;4976368;28;20035;-81
2023/09/17 02:29:05;;;;;;;13.30;8.45;;;9.30;99.80;;;;;;4970158;28;20039;-81
2023/09/17 02:31:31;;;;;;;18.88;8.90;;;9.30;99.80;;;;;;4938831;29;20498;-82
2023/09/17 02:33:57;;;;;;;18.35;8.80;;;9.30;99.80;;;;;;4955970;29;20110;-83
2023/09/17 02:36:23;;;;;;;12.48;7.70;;;9.30;99.80;;;;;;4954477;29;20110;-81
2023/09/17 02:38:49;;;;;;;19.83;7.95;;;9.20;99.80;;;;;;4955094;29;20031;-81
2023/09/17 02:41:15;;;;;;;15.63;9.40;;;9.20;99.90;;;;;;4946530;29;20024;-82
2023/09/17 02:43:41;;;;;;;21.30;11.30;;;9.20;99.90;;;;;;4946001;29;20054;-81
2023/09/17 02:46:06;;;;;;;13.85;9.05;;;9.20;99.90;;;;;;4944516;29;20031;-82
2023/09/17 02:48:32;;;;;;;18.30;10.60;;;9.20;99.90;;;;;;4954096;29;20417;-83
2023/09/17 02:51:02;;;;;;;22.92;9.88;;;9.20;99.90;;;;;;4937191;29;20560;-82
2023/09/17 02:53:28;;;;;;;20.85;11.20;;;9.20;99.90;;;;;;4940695;29;20377;-83
2023/09/17 02:55:54;;;;;;;22.75;11.60;;;9.10;99.90;;;;;;4954063;29;20027;-84
2023/09/17 02:58:20;;;;;;;19.80;11.57;;;9.10;99.90;;;;;;4936859;29;20031;-84
2023/09/17 03:00:46;;;;;;;19.80;11.10;;;9.10;99.90;;;;;;4945294;29;20389;-83
2023/09/17 03:03:13;;;;;;;18.83;11.60;;;9.20;99.90;;;;;;4945703;29;20079;-82
2023/09/17 03:05:38;;;;;;;20.73;12.63;;;9.10;99.90;;;;;;4936711;29;20106;-83
2023/09/17 03:08:09;;;;;;;20.90;13.32;;;9.10;99.90;;;;;;4937279;29;20127;-83
2023/09/17 03:10:41;;;;;;;27.50;14.00;;;9.20;99.90;;;;;;4957282;29;20027;-83
2023/09/17 03:13:12;;;;;;;29.02;15.35;;;9.20;99.90;;;;;;4953975;28;20031;-82
2023/09/17 03:15:38;;;;;;;21.20;14.00;;;9.10;99.90;;;;;;4940618;29;20150;-81
2023/09/17 03:18:04;;;;;;;31.42;13.65;;;9.20;99.90;;;;;;4945427;29;20035;-80
2023/09/17 03:20:33;;;;;;;24.50;13.15;;;9.20;99.90;;;;;;4951774;29;20024;-82
2023/09/17 03:23:04;;;;;;;22.90;14.30;;;9.20;99.90;;;;;;4941409;29;20035;-84
2023/09/17 03:25:33;;;;;;;16.63;12.15;;;9.20;99.90;;;;;;4960501;29;20047;-83
2023/09/17 03:27:59;;;;;;;24.48;13.52;;;9.30;99.90;;;;;;4973129;29;20027;-82
2023/09/17 03:30:26;;;;;;;19.67;12.38;;;9.30;99.90;;;;;;4964064;29;20047;-84
2023/09/17 03:32:52;;;;;;;26.70;14.38;;;9.40;99.90;;;;;;4956275;29;20042;-83
2023/09/17 03:35:18;;;;;;;22.65;14.85;;;9.40;99.90;;;;;;4956580;29;20035;-83
2023/09/17 03:37:45;;;;;;;19.83;13.18;;;9.50;99.90;;;;;;4939991;29;20119;-83
2023/09/17 03:40:13;;;;;;;22.65;13.63;;;9.50;99.90;;;;;;4953847;29;20489;-83
2023/09/17 03:42:40;;;;;;;25.88;14.18;;;9.60;99.90;;;;;;4956047;29;20139;-82
2023/09/17 03:45:09;;;;;;;25.50;14.32;;;9.60;99.90;;;;;;4946023;29;20480;-83
2023/09/17 03:47:36;;;;;;;25.00;14.88;;;9.70;99.90;;;;;;4956501;29;20058;-82
2023/09/17 03:50:04;;;;;;;33.05;18.02;;;9.80;99.90;;;;;;4956144;29;20018;-83
2023/09/17 03:52:31;;;;;;;23.98;16.75;;;9.80;99.90;;;;;;4956067;29;20123;-83
2023/09/17 03:54:57;;;;;;;23.92;15.18;;;9.90;99.80;;;;;;4956473;29;20112;-83
2023/09/17 03:57:23;;;;;;;22.30;13.85;;;10.00;99.60;;;;;;4955845;29;20031;-83
2023/09/17 03:59:50;;;;;;;27.60;15.68;;;10.00;99.70;;;;;;4956260;29;20023;-83
2023/09/17 04:02:17;;;;;;;27.73;16.48;;;10.10;99.40;;;;;;4938974;29;20437;-83
2023/09/17 04:04:43;;;;;;;26.95;15.98;;;10.20;99.50;;;;;;4955977;29;20027;-83
2023/09/17 04:07:09;;;;;;;25.70;16.02;;;10.30;99.80;;;;;;4954987;29;20133;-83
2023/09/17 04:09:35;;;;;;;24.00;16.88;;;10.50;99.90;;;;;;4956304;29;20177;-83
2023/09/17 04:12:04;;;;;;;21.35;15.77;;;10.80;99.60;;;;;;4956864;29;20380;-83
2023/09/17 04:14:31;;;;;;;22.40;16.13;;;11.30;98.60;;;;;;4946122;29;20071;-84
2023/09/17 04:17:05;;;;;;;21.20;15.80;;;11.70;97.20;;;;;;4932746;29;20039;-83
2023/09/17 04:19:32;;;;;;;21.55;14.98;;;12.10;95.80;;;;;;4955564;29;20272;-83
2023/09/17 04:21:58;;;;;;;23.13;15.05;;;12.40;94.80;;;;;;4938578;29;20480;-84
2023/09/17 04:24:25;;;;;;;24.92;16.10;;;12.50;93.70;;;;;;4955906;28;20031;-84
2023/09/17 04:26:52;;;;;;;18.33;14.82;;;12.30;93.10;;;;;;4957148;29;20043;-83
2023/09/17 04:29:19;;;;;;;18.10;14.50;;;11.90;93.30;;;;;;4911400;29;1297889;-82
2023/09/17 04:31:49;;;;;;;22.37;16.30;;;11.60;93.70;;;;;;4956526;29;20081;-82
2023/09/17 04:34:15;;;;;;;25.52;16.85;;;11.40;94.10;;;;;;4946999;29;20016;-82
2023/09/17 04:36:41;;;;;;;23.92;16.73;;;11.20;94.40;;;;;;4943645;29;20106;-82
2023/09/17 04:39:09;;;;;;;28.15;15.32;;;11.00;94.70;;;;;;4956034;29;20506;-83
2023/09/17 04:41:36;;;;;;;23.85;16.17;;;10.90;95.00;;;;;;4956382;29;20031;-84
2023/09/17 04:44:03;;;;;;;23.63;16.48;;;10.90;95.20;;;;;;4931378;29;20055;-84
2023/09/17 04:46:29;;;;;;;;;;;10.90;95.40;;;;;;4954117;29;20074;-85
2023/09/17 04:48:55;;;;;;;24.42;16.23;;;11.00;95.50;;;;;;4956627;29;20343;-83
2023/09/17 04:51:21;;;;;;;17.92;14.30;;;11.00;95.30;;;;;;4956591;29;20035;-84
2023/09/17 04:53:47;;;;;;;21.33;15.68;;;10.90;95.20;;;;;;4940112;29;20038;-85
2023/09/17 04:56:13;;;;;;;21.27;15.77;;;10.90;95.20;;;;;;4940083;29;20118;-86
2023/09/17 04:58:39;;;;;;;23.63;16.42;;;10.90;95.20;;;;;;4941475;29;20030;-85
2023/09/17 05:01:06;;;;;;;30.13;17.70;;;10.90;95.20;;;;;;4953377;29;20034;-87
2023/09/17 05:03:33;;;;;;;18.70;14.82;;;10.90;95.30;;;;;;4943305;29;20035;-85
2023/09/17 05:05:59;;;;;;;22.05;16.17;;;10.90;95.30;;;;;;4936861;29;20409;-86
2023/09/17 05:08:24;;;;;;;23.55;15.80;;;10.90;95.60;;;;;;4949503;29;20023;-86
2023/09/17 05:10:50;;;;;;;21.92;15.77;;;11.00;95.30;;;;;;4925980;29;20034;-86
2023/09/17 05:13:16;;;;;;;22.17;15.57;;;11.00;95.30;;;;;;4930386;29;20031;-85
2023/09/17 05:15:42;;;;;;;24.73;15.18;;;11.00;95.20;;;;;;4951528;29;20038;-84
2023/09/17 05:18:09;;;;;;;20.35;15.10;;;11.00;95.20;;;;;;4927525;29;20023;-83
2023/09/17 05:20:41;;;;;;;18.83;14.85;;;11.00;95.20;;;;;;4956252;29;20020;-83
2023/09/17 05:23:07;;;;;;;21.60;13.80;;;11.10;95.20;;;;;;4919925;29;20035;-84
2023/09/17 05:25:34;;;;;;;19.60;13.65;;;11.10;95.10;;;;;;4951628;29;20514;-83
2023/09/17 05:28:03;;;;;;;15.02;10.15;;;11.20;94.90;;;;;;4955889;29;20027;-84
2023/09/17 05:30:29;;;;;;;16.70;9.88;;;11.30;94.80;;;;;;4938541;29;20534;-84
2023/09/17 05:32:55;;;;;;;18.33;10.52;;;11.30;94.60;;;;;;4955926;29;20047;-83
2023/09/17 05:35:21;;;;;;;14.25;9.38;;;11.30;94.50;;;;;;4955756;29;20027;-83
2023/09/17 05:37:46;;;;;;;14.65;9.90;;;11.40;94.40;;;;;;4942886;28;20099;-83
2023/09/17 05:40:12;;;;;;;13.15;8.75;;;11.40;94.30;;;;;;4944972;29;20122;-83
2023/09/17 05:42:38;;;;;;;18.85;10.98;;;11.50;94.10;;;;;;4949121;29;20459;-87
2023/09/17 05:45:04;;;;;;;18.50;9.82;;;11.60;94.00;;;;;;4946027;29;20078;-85
2023/09/17 05:47:30;;;;;;;11.20;9.45;;;11.60;93.80;;;;;;4945612;29;20119;-86
2023/09/17 05:49:57;;;;;;;15.18;10.60;;;11.70;93.70;;;;;;4939472;29;20055;-87
2023/09/17 05:52:23;;;;;;;17.83;10.57;;;11.80;93.50;;;;;;4938947;29;20028;-83
2023/09/17 05:54:49;;;;;;;17.90;11.18;;;11.80;93.40;;;;;;4939883;29;20112;-81
2023/09/17 05:57:16;;;;;;;15.25;9.60;;;11.90;93.40;;;;;;4950782;29;20028;-83
2023/09/17 05:59:42;;;;;;;13.85;9.65;;;11.90;93.30;;;;;;4955111;29;20031;-84
2023/09/17 06:02:17;;;;;;;14.98;9.43;;;12.00;93.10;;;;;;4956871;29;20051;-85
2023/09/17 06:04:43;;;;;;;15.23;9.60;;;12.10;93.00;;;;;;4951221;29;20460;-82
2023/09/17 06:07:09;;;;;;;16.25;9.25;;;12.10;92.70;;;;;;4936427;29;20071;-86
2023/09/17 06:09:34;;;;;;;19.58;9.73;;;12.20;92.50;;;;;;4923458;29;20024;-86
2023/09/17 06:12:00;;;;;;;14.15;7.95;;;12.30;92.50;;;;;;4936124;29;20042;-85
2023/09/17 06:14:26;;;;;;;9.95;6.72;;;12.30;92.40;;;;;;4939390;29;20023;-85
2023/09/17 06:16:52;;;;;;;12.30;7.65;;;12.40;92.20;;;;;;4918818;29;20027;-84
2023/09/17 06:19:18;;;;;;;12.27;8.25;;;12.40;92.10;;;;;;4916064;29;20186;-86
2023/09/17 06:21:44;;;;;;;8.88;7.03;;;12.50;92.20;;;;;;4941671;29;20100;-86
2023/09/17 06:24:09;;;;;;;8.18;6.32;;;12.50;92.20;;;;;;4939731;29;20024;-85
2023/09/17 06:26:38;;;;;;;9.50;6.82;;;12.60;92.10;;;;;;4941252;29;20110;-87
2023/09/17 06:29:04;;;;;;;12.50;6.18;;;12.70;92.10;;;;;;4940732;29;20122;-84
2023/09/17 06:31:30;;;;;;;8.27;6.80;;;12.80;92.00;;;;;;4940001;29;20074;-84
2023/09/17 06:33:56;;;;;;;7.10;5.53;;;12.90;91.90;;;;;;4962845;28;20030;-85
2023/09/17 06:36:22;;;;;;;10.95;5.97;;;12.90;91.80;;;;;;4948367;29;20027;-84
2023/09/17 06:38:48;;;;;;;6.75;5.07;;;13.00;91.60;;;;;;4957170;28;20019;-85
2023/09/17 06:41:14;;;;;;;7.28;4.55;;;13.10;91.50;;;;;;4956323;28;20023;-86
2023/09/17 06:43:40;;;;;;;9.00;5.00;;;13.20;91.20;;;;;;4952645;29;20569;-85
2023/09/17 06:46:09;;;;;;;5.22;3.95;;;13.30;91.00;;;;;;4956313;29;20110;-85
2023/09/17 06:48:35;;;;;;;7.63;4.68;;;13.40;90.90;;;;;;4957235;29;20051;-85
2023/09/17 06:51:01;;;;;;;6.88;4.53;;;13.50;90.90;;;;;;4957631;29;20032;-85
2023/09/17 06:53:27;;;;;;;8.63;4.78;;;13.60;90.70;;;;;;4957376;28;20020;-84
2023/09/17 06:55:53;;;;;;;10.07;5.57;;;13.70;90.50;;;;;;4945302;29;20027;-84
2023/09/17 06:58:19;;;;;;;7.70;4.00;;;13.90;90.30;;;;;;4956211;29;20504;-83
2023/09/17 07:00:47;;;;;;;7.25;3.90;;;14.00;90.10;;;;;;4956257;28;20102;-83
2023/09/17 07:03:13;;;;;;;5.68;3.78;;;14.20;89.50;;;;;;4958796;28;20087;-82
2023/09/17 07:05:40;;;;;;;5.70;4.35;;;14.50;88.60;;;;;;4955951;28;20114;-84
2023/09/17 07:08:06;;;;;;;6.68;4.10;;;15.50;88.40;;;;;;4956571;28;20027;-85
2023/09/17 07:10:32;;;;;;;8.75;5.20;;;17.60;85.10;;;;;;4956467;28;20436;-83
2023/09/17 07:12:58;;;;;;;5.55;3.40;;;20.00;76.40;;;;;;4956156;28;20051;-84
2023/09/17 07:15:25;;;;;;;5.28;3.10;;;22.20;69.00;;;;;;4939545;29;20031;-84
2023/09/17 07:17:52;;;;;;;;;;;24.20;61.90;;;;;;4955564;29;20110;-83
2023/09/17 07:20:19;;;;;;;;;;;25.50;63.50;;;;;;4958922;28;19957;-82
2023/09/17 07:22:47;;;;;;;5.32;3.30;;;26.50;63.00;;;;;;4957020;28;19918;-85
2023/09/17 07:25:12;;;;;;;4.30;3.20;;;27.60;52.40;;;;;;4965679;28;20064;-84
2023/09/17 07:27:39;;;;;;;4.60;3.60;;;28.40;49.40;;;;;;4958568;28;20055;-84
2023/09/17 07:30:05;;;;;;;5.80;3.65;;;29.00;47.60;;;;;;4936938;29;20043;-84
2023/09/17 07:32:31;;;;;;;7.25;4.63;;;29.50;46.30;;;;;;4955595;29;20043;-83
2023/09/17 07:34:58;;;;;;;8.03;5.17;;;30.10;45.20;;;;;;4955282;29;20046;-84
2023/09/17 07:37:24;;;;;;;;;;;30.40;44.20;;;;;;4955687;29;20039;-86
2023/09/17 07:39:55;;;;;;;7.53;4.50;;;31.00;47.30;;;;;;4937375;29;19922;-82
2023/09/17 07:42:21;;;;;;;5.28;4.30;;;31.30;42.40;;;;;;4953798;28;20031;-82
2023/09/17 07:44:47;;;;;;;6.60;4.17;;;31.60;41.30;;;;;;4953858;29;20437;-83
2023/09/17 07:47:13;;;;;;;5.90;3.70;;;31.20;41.10;;;;;;4953977;29;20527;-84
2023/09/17 07:49:39;;;;;;;5.70;4.30;;;30.90;41.40;;;;;;4961218;29;20029;-84
2023/09/17 07:52:06;;;;;;;4.60;3.60;;;30.80;41.30;;;;;;4969463;29;20488;-85
2023/09/17 07:54:37;;;;;;;;;;;30.60;41.50;;;;;;4961352;29;20107;-85
2023/09/17 07:57:04;;;;;;;9.55;4.32;;;30.80;43.80;;;;;;4952827;29;19914;-85
2023/09/17 07:59:30;;;;;;;6.97;3.47;;;;;;;;;;4954116;28;20022;-84
2023/09/17 08:01:57;;;;;;;4.78;3.65;;;33.10;38.90;;;;;;4958294;29;20492;-84
2023/09/17 08:04:24;;;;;;;6.10;3.22;;;;;;;;;;4940202;29;20030;-84
2023/09/17 08:06:50;;;;;;;6.80;4.28;;;33.10;39.50;;;;;;4960090;29;20039;-85
2023/09/17 08:09:17;;;;;;;4.53;3.40;;;34.00;38.00;;;;;;4974317;29;20019;-84
2023/09/17 08:11:43;;;;;;;4.65;3.50;;;34.00;37.20;;;;;;4963176;29;20027;-84
2023/09/17 08:14:10;;;;;;;8.52;4.22;;;34.00;37.60;;;;;;4957083;29;20102;-82
2023/09/17 08:16:36;;;;;;;5.25;3.78;;;33.50;37.10;;;;;;4957420;29;20322;-84
2023/09/17 08:19:02;;;;;;;7.88;4.35;;;33.70;37.10;;;;;;4940986;29;20031;-85
2023/09/17 08:21:28;;;;;;;4.90;3.88;;;34.20;37.00;;;;;;4939364;29;20019;-83
2023/09/17 08:23:55;;;;;;;5.85;3.65;;;34.60;36.30;;;;;;4957069;29;20042;-82
2023/09/17 08:26:22;;;;;;;7.50;3.13;;;33.50;36.40;;;;;;4956864;29;20027;-81
2023/09/17 08:28:49;;;;;;;11.10;4.25;;;33.00;36.80;;;;;;4956951;29;20106;-84
2023/09/17 08:31:18;;;;;;;4.70;3.67;;;33.30;36.90;;;;;;4956518;29;20050;-81
2023/09/17 08:33:45;;;;;;;6.07;4.10;;;33.70;36.60;;;;;;4957079;29;20029;-86
2023/09/17 08:36:11;;;;;;;5.15;3.72;;;34.20;35.80;;;;;;4956987;29;20080;-84
2023/09/17 08:38:37;;;;;;;6.05;3.55;;;34.40;35.50;;;;;;4941097;29;20038;-86
2023/09/17 08:41:06;;;;;;;5.97;3.85;;;34.40;35.40;;;;;;4959157;29;20059;-84
2023/09/17 08:43:33;;;;;;;10.73;4.38;;;34.10;35.90;;;;;;4958737;29;20046;-87
2023/09/17 08:46:03;;;;;;;8.45;4.35;;;34.80;36.80;;;;;;4957729;29;20032;-84
2023/09/17 08:48:29;;;;;;;8.10;4.65;;;34.90;35.40;;;;;;4956748;29;20030;-83
2023/09/17 08:50:58;;;;;;;4.22;3.53;;;35.10;34.50;;;;;;4957347;29;20365;-85
2023/09/17 08:53:30;;;;;;;9.43;3.88;;;35.20;34.50;;;;;;4956074;29;20069;-83
2023/09/17 08:55:59;;;;;;;5.47;3.35;;;34.00;34.90;;;;;;4956516;29;20074;-84
2023/09/17 08:58:38;;;;;;;6.15;4.03;;;33.40;35.30;;;;;;4957445;29;20035;-84
2023/09/17 09:01:07;;;;;;;5.28;3.88;;;33.60;35.70;;;;;;4956932;29;20079;-84
2023/09/17 09:03:35;;;;;;;6.88;4.32;;;32.40;35.50;;;;;;4939242;29;20027;-83
2023/09/17 09:06:03;;;;;;;7.43;4.18;;;31.60;36.20;;;;;;4943543;29;20043;-83
2023/09/17 09:08:30;;;;;;;6.03;4.07;;;31.80;37.40;;;;;;4956515;29;20023;-83
2023/09/17 09:10:57;;;;;;;4.45;3.65;;;32.80;36.70;;;;;;4956316;28;20162;-83
2023/09/17 09:13:23;;;;;;;;;;;32.90;35.00;;;;;;4939040;29;20023;-84
2023/09/17 09:15:49;;;;;;;;;;;31.00;36.70;;;;;;4939363;29;19910;-84
2023/09/17 09:18:15;;;;;;;4.03;3.47;;;30.10;38.00;;;;;;4955989;29;19906;-84
2023/09/17 09:20:42;;;;;;;6.50;3.57;;;29.90;38.00;;;;;;4956347;29;20078;-86
2023/09/17 09:23:07;;;;;;;;;;;30.30;37.80;;;;;;4958637;29;20023;-84
2023/09/17 09:25:34;;;;;;;4.95;3.58;;;31.20;38.40;;;;;;4958760;29;20418;-83
2023/09/17 09:28:01;;;;;;;;;;;32.20;36.90;;;;;;4960087;29;20035;-84
2023/09/17 09:30:27;;;;;;;4.25;3.40;;;33.00;37.10;;;;;;4961613;29;19918;-83
2023/09/17 09:32:54;;;;;;;4.93;3.38;;;32.20;36.00;;;;;;4965768;29;20054;-81
2023/09/17 09:35:20;;;;;;;5.97;4.00;;;32.10;35.70;;;;;;4961812;29;20027;-84
2023/09/17 09:37:46;;;;;;;;;;;31.50;36.70;;;;;;4960432;29;20056;-82
2023/09/17 09:40:14;;;;;;;3.60;3.30;;;31.50;37.50;;;;;;4974260;29;19930;-84
2023/09/17 09:42:43;;;;;;;4.57;3.13;;;31.80;36.70;;;;;;4971051;29;20031;-83
2023/09/17 09:45:18;;;;;;;7.25;4.60;;;31.70;36.60;;;;;;4969311;29;20035;-85
2023/09/17 09:47:50;;;;;;;8.05;4.07;;;32.60;36.70;;;;;;4948118;29;20063;-84
2023/09/17 09:50:27;;;;;;;6.60;3.88;;;33.20;36.20;;;;;;4957281;28;20027;-85
2023/09/17 09:52:54;;;;;;;6.78;3.25;;;32.30;35.10;;;;;;4937957;29;20079;-87
2023/09/17 09:55:24;;;;;;;5.80;3.83;;;31.00;36.30;;;;;;4939899;29;20074;-85
2023/09/17 09:57:52;;;;;;;7.60;4.07;;;31.40;36.60;;;;;;4969553;29;20081;-91
2023/09/17 10:00:26;;;;;;;4.82;3.47;;;31.90;36.80;;;;;;4943362;29;20091;-90
2023/09/17 10:02:56;;;;;;;5.45;3.72;;;32.90;35.50;;;;;;4959081;29;20019;-94
2023/09/17 10:05:35;;;;;;;6.37;4.40;;;32.90;34.80;;;;;;4960196;29;20028;-88
2023/09/17 10:08:04;;;;;;;7.07;3.40;;;30.90;36.60;;;;;;4940684;29;20028;-90
2023/09/17 10:10:31;;;;;;;5.05;3.55;;;31.30;59.60;;;;;;4957595;29;20024;-85
2023/09/17 10:12:59;;;;;;;8.40;3.83;;;32.20;58.20;;;;;;4955973;29;20083;-84
2023/09/17 10:15:25;;;;;;;6.72;4.95;;;;;;;;;;4938695;29;20038;-85
2023/09/17 10:17:55;;;;;;;6.95;3.63;;;30.60;36.50;;;;;;4951016;29;20035;-84
2023/09/17 10:20:22;;;;;;;5.07;4.07;;;26.70;41.50;;;;;;4930581;29;20031;-83
2023/09/17 10:22:48;;;;;;;;;;;25.30;42.50;;;;;;4937390;29;20034;-85
2023/09/17 10:25:16;;;;;;;9.70;4.18;;;24.30;42.60;;;;;;4955260;29;19957;-83
2023/09/17 10:27:46;;;;;;;4.95;4.30;;;23.20;46.20;;;;;;4937645;29;20047;-83
2023/09/17 10:30:17;;;;;;;6.10;4.20;;;22.40;47.60;;;;;;4954861;29;20046;-83
2023/09/17 10:32:46;;;;;;;7.35;4.03;;;21.40;48.80;;;;;;4955600;29;20058;-85
2023/09/17 10:35:14;;;;;;;6.38;4.85;;;20.70;50.20;;;;;;4955035;29;20031;-83
2023/09/17 10:37:40;;;;;;;9.07;5.38;;;20.10;51.90;;;;;;4955716;29;20058;-83
2023/09/17 10:40:12;;;;;;;8.35;5.03;;;19.90;52.40;;;;;;4955761;29;20054;-81
2023/09/17 10:42:40;;;;;;;7.63;4.85;;;19.70;52.80;;;;;;4956261;28;20027;-83
2023/09/17 10:45:08;;;;;;;5.95;5.25;;;19.70;54.00;;;;;;4958734;29;20370;-83
2023/09/17 10:47:37;;;;;;;6.18;5.00;;;19.70;54.40;;;;;;4941407;29;20035;-83
2023/09/17 10:50:03;;;;;;;9.68;6.32;;;19.50;54.40;;;;;;4943129;29;20030;-83
2023/09/17 10:52:33;;;;;;;10.77;6.90;;;19.30;54.80;;;;;;4956418;29;20023;-84
2023/09/17 10:54:59;;;;;;;8.88;6.18;;;19.20;55.00;;;;;;4956394;29;20061;-83
2023/09/17 10:57:39;;;;;;;6.85;5.03;;;19.30;55.40;;;;;;4937857;29;20381;-84
2023/09/17 11:00:11;;;;;;;8.13;5.13;;;18.90;56.70;;;;;;4950457;28;20027;-84
2023/09/17 11:02:39;;;;;;;6.82;5.85;;;18.60;57.40;;;;;;4943375;29;20095;-85
2023/09/17 11:05:08;;;;;;;7.72;5.18;;;18.40;58.20;;;;;;4956283;29;20083;-83
2023/09/17 11:07:35;;;;;;;7.80;4.82;;;18.40;57.90;;;;;;4936151;29;20031;-85
2023/09/17 11:10:04;;;;;;;10.02;5.53;;;18.40;56.80;;;;;;4953620;29;20418;-83
2023/09/17 11:12:31;;;;;;;7.50;4.57;;;18.30;57.40;;;;;;4944666;29;20440;-85
2023/09/17 11:14:57;;;;;;;8.35;5.32;;;18.30;58.20;;;;;;4932305;29;20090;-85
2023/09/17 11:17:34;;;;;;;9.23;4.82;;;18.30;57.80;;;;;;4959085;29;20074;-83
2023/09/17 11:20:00;;;;;;;7.43;4.82;;;18.20;57.90;;;;;;4969632;28;20047;-83
2023/09/17 11:22:36;;;;;;;5.95;4.22;;;18.30;58.70;;;;;;4956173;29;20027;-83
2023/09/17 11:25:03;;;;;;;12.02;5.10;;;18.50;58.70;;;;;;4938243;29;20050;-83
2023/09/17 11:27:50;;;;;;;6.45;4.65;;;18.50;59.20;;;;;;4962352;29;20109;-84
2023/09/17 11:30:23;;;;;;;6.80;4.20;;;18.60;57.90;;;;;;4962799;29;20103;-83
2023/09/17 11:32:54;;;;;;;7.40;4.45;;;18.70;57.30;;;;;;4962945;29;20099;-86
2023/09/17 11:35:22;;;;;;;6.25;4.15;;;18.70;57.10;;;;;;4955790;28;20019;-84
2023/09/17 11:37:49;;;;;;;5.97;4.45;;;18.50;58.00;;;;;;4940495;29;20046;-85
2023/09/17 11:40:16;;;;;;;7.55;4.43;;;18.50;58.20;;;;;;4958246;28;20493;-85
2023/09/17 11:42:42;;;;;;;6.78;4.22;;;18.50;58.20;;;;;;4957975;28;20538;-85
2023/09/17 11:45:08;;;;;;;4.68;3.97;;;18.50;58.50;;;;;;4940365;29;20071;-84
2023/09/17 11:47:38;;;;;;;6.68;4.40;;;18.60;58.30;;;;;;4958070;29;20039;-86
2023/09/17 11:50:07;;;;;;;7.85;4.40;;;18.50;58.70;;;;;;4957545;29;20066;-81
2023/09/17 11:52:33;;;;;;;5.38;3.60;;;18.40;58.70;;;;;;4941162;29;20117;-84
2023/09/17 11:55:03;;;;;;;8.50;4.45;;;18.40;58.80;;;;;;4946840;29;20452;-84
2023/09/17 11:57:29;;;;;;;5.93;4.20;;;18.40;59.00;;;;;;4948911;29;20031;-85
2023/09/17 11:59:55;;;;;;;7.45;6.10;;;18.40;59.70;;;;;;4957658;29;20087;-84
2023/09/17 12:02:22;;;;;;;8.50;4.10;;;18.50;60.00;;;;;;4941920;29;20497;-85
2023/09/17 12:04:50;;;;;;;9.07;4.63;;;18.60;58.70;;;;;;4940277;29;20502;-82
2023/09/17 12:07:15;;;;;;;;;;;18.40;59.30;;;;;;4954713;29;20304;-83
2023/09/17 12:12:12;;;;;;;6.63;4.03;;;18.50;59.70;;;;;;4957485;29;20512;-83
2023/09/17 12:14:39;;;;;;;7.30;4.00;;;18.40;59.60;;;;;;4955604;29;20027;-85
2023/09/17 12:17:05;;;;;;;4.75;4.25;;;18.30;60.00;;;;;;4941511;29;20019;-83
2023/09/17 12:19:31;;;;;;;7.47;4.25;;;18.30;60.20;;;;;;4958192;29;20103;-83
2023/09/17 12:21:59;;;;;;;6.93;4.13;;;18.40;59.80;;;;;;4937281;29;20028;-82
2023/09/17 12:24:44;;;;;;;8.65;5.20;;;18.30;60.30;;;;;;4956785;28;20039;-83
2023/09/17 12:29:45;;;;;;;4.80;4.07;;;18.60;60.60;;;;;;4957449;29;20075;-83
2023/09/17 12:32:12;;;;;;;5.97;4.03;;;18.80;59.60;;;;;;4956789;29;20024;-82
2023/09/17 12:34:40;;;;;;;5.85;4.18;;;18.80;57.30;;;;;;4936542;29;20034;-81
2023/09/17 12:37:07;;;;;;;5.13;3.80;;;18.80;57.20;;;;;;4951991;29;20049;-80
2023/09/17 12:39:33;;;;;;;5.22;4.32;;;18.80;57.00;;;;;;4940304;29;20015;-86
2023/09/17 12:41:59;;;;;;;4.95;3.78;;;18.80;57.00;;;;;;4958690;28;20036;-85
2023/09/17 12:44:26;;;;;;;5.95;4.53;;;18.80;56.70;;;;;;4946100;29;20023;-88
2023/09/17 12:46:53;;;;;;;6.68;4.68;;;18.80;56.90;;;;;;4940585;29;20050;-87
2023/09/17 12:49:21;;;;;;;6.95;4.50;;;18.70;56.80;;;;;;4958239;29;20031;-87
2023/09/17 12:51:47;;;;;;;5.75;3.97;;;18.70;57.20;;;;;;4945069;29;20630;-88
2023/09/17 12:54:13;;;;;;;6.80;3.83;;;18.60;57.30;;;;;;4971255;29;20011;-87